Airport details for: EEKA (Estonia)

Metar

EEKA 240650Z 17009KT CAVOK 14/08 Q1004

General details

ICAO: EEKA
IATA: KDL
Name (city): Kardla
Major:
Country: Estonia
vACC: VACC Estonia
Description:

Kärdla Airport is airport in Estonia, located on Hiiumaa island.

Scenery links:
FS9 scenery:
FSX/P3D scenery:
XP scenery: Download
Elevation: 18 ft.
Transition altitude: 5000 ft.
MSA: 4900 ft.
Latitude: 58.990834
Longitude: 22.830834
EEKA Charts
EEKA Notams
EEKA Online stations

Runways

Number Course Length Elevation Lat Lon ILS ILS freq ILS FAC GP
14 141° 4987ft / 1520 m 11ft 58.996536 22.823742 - - 3.0°
32 321° 4987ft / 1520 m 14ft 58.986859 22.835745 - - 3.0°